HK36E KFLL-KDAB
Flight info
| Callsign | HK36E |
|---|---|
| Flight time | N/A |
| Altitude | 9000 |
| Route | SHANC T208 SMYRA |
| Aircraft | BE20/M-SDFGRWY/LB1 |
Departure
| Time | 2026-05-03 22:02 |
|---|---|
| Airport | Fort Lauderdale Hollywood International Airport (KFLL) |
Arrival
| Time | N/A |
|---|---|
| Airport | Daytona Beach International Airport (KDAB) |
| Time | Latitude | Longitude | Altitude | Speed | Heading |
|---|---|---|---|---|---|
| 2026-05-03 20:52 | 26.07166 | -80.15562 | 16 ft | 0 kts | 222° |
| 2026-05-03 21:00 | 26.07180 | -80.15548 | 16 ft | 2 kts | 222° |
| 2026-05-03 21:00 | 26.07183 | -80.15545 | 16 ft | 0 kts | 222° |
| 2026-05-03 21:02 | 26.07190 | -80.15552 | 16 ft | 5 kts | 30° |
| 2026-05-03 21:02 | 26.07200 | -80.15544 | 16 ft | 0 kts | 39° |
| 2026-05-03 21:20 | 26.07226 | -80.15531 | 15 ft | 10 kts | 8° |
| 2026-05-03 21:21 | 26.07319 | -80.15587 | 15 ft | 21 kts | 317° |
| 2026-05-03 21:21 | 26.07410 | -80.15684 | 15 ft | 8 kts | 315° |
| 2026-05-03 21:21 | 26.07455 | -80.15735 | 15 ft | 13 kts | 315° |
| 2026-05-03 21:21 | 26.07493 | -80.15846 | 16 ft | 20 kts | 271° |
| 2026-05-03 21:22 | 26.07495 | -80.16028 | 20 ft | 27 kts | 270° |
| 2026-05-03 21:22 | 26.07496 | -80.16148 | 21 ft | 10 kts | 270° |
| 2026-05-03 21:22 | 26.07496 | -80.16187 | 21 ft | 0 kts | 270° |
| 2026-05-03 21:23 | 26.07496 | -80.16188 | 21 ft | 2 kts | 270° |
| 2026-05-03 21:24 | 26.07496 | -80.16191 | 21 ft | 0 kts | 270° |
| 2026-05-03 21:24 | 26.07496 | -80.16222 | 20 ft | 10 kts | 270° |
| 2026-05-03 21:24 | 26.07497 | -80.16286 | 20 ft | 0 kts | 270° |
| 2026-05-03 21:31 | 26.07497 | -80.16288 | 20 ft | 2 kts | 270° |
| 2026-05-03 21:31 | 26.07497 | -80.16330 | 19 ft | 0 kts | 270° |
| 2026-05-03 21:32 | 26.07497 | -80.16336 | 19 ft | 4 kts | 270° |
| 2026-05-03 21:32 | 26.07497 | -80.16357 | 19 ft | 0 kts | 270° |
| 2026-05-03 21:32 | 26.07497 | -80.16367 | 19 ft | 5 kts | 271° |
| 2026-05-03 21:32 | 26.07497 | -80.16406 | 19 ft | 0 kts | 270° |
| 2026-05-03 21:33 | 26.07497 | -80.16414 | 19 ft | 0 kts | 270° |
| 2026-05-03 21:34 | 26.07497 | -80.16424 | 19 ft | 5 kts | 270° |
| 2026-05-03 21:34 | 26.07498 | -80.16446 | 20 ft | 0 kts | 271° |
| 2026-05-03 21:34 | 26.07498 | -80.16448 | 20 ft | 1 kts | 271° |
| 2026-05-03 21:35 | 26.07498 | -80.16455 | 20 ft | 0 kts | 269° |
| 2026-05-03 21:38 | 26.07498 | -80.16464 | 20 ft | 2 kts | 270° |
| 2026-05-03 21:38 | 26.07498 | -80.16483 | 20 ft | 4 kts | 271° |
| 2026-05-03 21:38 | 26.07498 | -80.16492 | 20 ft | 0 kts | 271° |
| 2026-05-03 21:43 | 26.07498 | -80.16500 | 20 ft | 2 kts | 270° |
| 2026-05-03 21:43 | 26.07498 | -80.16540 | 20 ft | 7 kts | 270° |
| 2026-05-03 21:43 | 26.07499 | -80.16564 | 20 ft | 0 kts | 270° |
| 2026-05-03 21:45 | 26.07499 | -80.16579 | 20 ft | 7 kts | 271° |
| 2026-05-03 21:46 | 26.07500 | -80.16607 | 19 ft | 0 kts | 276° |
| 2026-05-03 21:46 | 26.07518 | -80.16637 | 19 ft | 6 kts | 327° |
| 2026-05-03 21:46 | 26.07525 | -80.16641 | 18 ft | 0 kts | 342° |
| 2026-05-03 21:47 | 26.07532 | -80.16643 | 18 ft | 5 kts | 345° |
| 2026-05-03 21:47 | 26.07574 | -80.16643 | 18 ft | 0 kts | 1° |
| 2026-05-03 21:49 | 26.07583 | -80.16643 | 18 ft | 5 kts | 1° |
| 2026-05-03 21:49 | 26.07589 | -80.16643 | 18 ft | 0 kts | 1° |
| 2026-05-03 21:53 | 26.07610 | -80.16642 | 17 ft | 8 kts | 2° |
| 2026-05-03 21:53 | 26.07675 | -80.16632 | 17 ft | 10 kts | 28° |
| 2026-05-03 21:53 | 26.07695 | -80.16598 | 17 ft | 0 kts | 89° |
| 2026-05-03 21:56 | 26.07695 | -80.16589 | 17 ft | 5 kts | 89° |
| 2026-05-03 21:57 | 26.07695 | -80.16546 | 18 ft | 12 kts | 90° |
| 2026-05-03 21:57 | 26.07695 | -80.16369 | 22 ft | 20 kts | 89° |
| 2026-05-03 21:57 | 26.07647 | -80.16304 | 24 ft | 12 kts | 181° |
| 2026-05-03 21:57 | 26.07577 | -80.16321 | 22 ft | 13 kts | 234° |
| 2026-05-03 21:58 | 26.07571 | -80.16397 | 21 ft | 15 kts | 271° |
| 2026-05-03 21:58 | 26.07572 | -80.16464 | 20 ft | 11 kts | 270° |
| 2026-05-03 21:58 | 26.07572 | -80.16512 | 20 ft | 4 kts | 271° |
| 2026-05-03 21:58 | 26.07588 | -80.16565 | 19 ft | 5 kts | 358° |
| 2026-05-03 21:59 | 26.07592 | -80.16565 | 18 ft | 0 kts | 0° |
| 2026-05-03 22:00 | 26.07608 | -80.16565 | 18 ft | 8 kts | 1° |
| 2026-05-03 22:01 | 26.07688 | -80.16543 | 18 ft | 17 kts | 54° |
| 2026-05-03 22:01 | 26.07695 | -80.16500 | 19 ft | 5 kts | 90° |
| 2026-05-03 22:01 | 26.07693 | -80.16214 | 24 ft | 73 kts | 90° |
| 2026-05-03 22:01 | 26.07687 | -80.15421 | 85 ft | 125 kts | 89° |
| 2026-05-03 22:02 | 26.07662 | -80.14380 | 524 ft | 142 kts | 88° |
| 2026-05-03 22:02 | 26.07671 | -80.13173 | 828 ft | 173 kts | 81° |
| 2026-05-03 22:02 | 26.08182 | -80.12005 | 1524 ft | 163 kts | 51° |
| 2026-05-03 22:02 | 26.08848 | -80.10932 | 1990 ft | 183 kts | 53° |
| 2026-05-03 22:03 | 26.09653 | -80.09679 | 2010 ft | 211 kts | 52° |
| 2026-05-03 22:03 | 26.10465 | -80.08419 | 2774 ft | 187 kts | 53° |
| 2026-05-03 22:03 | 26.11182 | -80.07305 | 3580 ft | 170 kts | 52° |
| 2026-05-03 22:03 | 26.11881 | -80.06213 | 3989 ft | 186 kts | 52° |
| 2026-05-03 22:04 | 26.12695 | -80.04956 | 4010 ft | 212 kts | 52° |
| 2026-05-03 22:04 | 26.13582 | -80.03593 | 4013 ft | 226 kts | 52° |
| 2026-05-03 22:04 | 26.14524 | -80.02151 | 4019 ft | 233 kts | 52° |
| 2026-05-03 22:04 | 26.15711 | -80.00959 | 4019 ft | 231 kts | 22° |
| 2026-05-03 22:05 | 26.17264 | -80.00673 | 4019 ft | 227 kts | 348° |
| 2026-05-03 22:05 | 26.18671 | -80.01383 | 4017 ft | 221 kts | 315° |
| 2026-05-03 22:05 | 26.19664 | -80.02671 | 4018 ft | 219 kts | 304° |
| 2026-05-03 22:05 | 26.20544 | -80.04042 | 4019 ft | 220 kts | 303° |
| 2026-05-03 22:06 | 26.21420 | -80.05443 | 4038 ft | 219 kts | 302° |
| 2026-05-03 22:06 | 26.22245 | -80.06757 | 4663 ft | 194 kts | 303° |
| 2026-05-03 22:06 | 26.22976 | -80.07914 | 5487 ft | 170 kts | 302° |
| 2026-05-03 22:06 | 26.23634 | -80.08933 | 6288 ft | 156 kts | 302° |
| 2026-05-03 22:07 | 26.24278 | -80.09912 | 6847 ft | 157 kts | 302° |
| 2026-05-03 22:07 | 26.24935 | -80.10889 | 7431 ft | 157 kts | 302° |
| 2026-05-03 22:07 | 26.25576 | -80.11868 | 7993 ft | 155 kts | 291° |
| 2026-05-03 22:07 | 26.25852 | -80.12992 | 8527 ft | 153 kts | 280° |
| 2026-05-03 22:08 | 26.26086 | -80.14153 | 9114 ft | 154 kts | 279° |
| 2026-05-03 22:08 | 26.26357 | -80.15310 | 9716 ft | 154 kts | 282° |
| 2026-05-03 22:08 | 26.26667 | -80.16455 | 10284 ft | 155 kts | 283° |
| 2026-05-03 22:08 | 26.26989 | -80.17605 | 10839 ft | 155 kts | 283° |
| 2026-05-03 22:09 | 26.27314 | -80.18753 | 11405 ft | 154 kts | 283° |
| 2026-05-03 22:09 | 26.27635 | -80.19892 | 11968 ft | 154 kts | 283° |
| 2026-05-03 22:09 | 26.27955 | -80.21027 | 12580 ft | 152 kts | 283° |
| 2026-05-03 22:10 | 26.28590 | -80.23281 | 13693 ft | 153 kts | 282° |
| 2026-05-03 22:10 | 26.28910 | -80.24421 | 14038 ft | 159 kts | 282° |
| 2026-05-03 22:10 | 26.29248 | -80.25620 | 14388 ft | 164 kts | 282° |
| 2026-05-03 22:10 | 26.29593 | -80.26845 | 14747 ft | 169 kts | 282° |
| 2026-05-03 22:11 | 26.29956 | -80.28139 | 15112 ft | 179 kts | 282° |
| 2026-05-03 22:11 | 26.30338 | -80.29496 | 15494 ft | 187 kts | 282° |
| 2026-05-03 22:11 | 26.30732 | -80.30895 | 15872 ft | 192 kts | 282° |
| 2026-05-03 22:11 | 26.31234 | -80.32286 | 16248 ft | 199 kts | 296° |
| 2026-05-03 22:12 | 26.32237 | -80.33416 | 16637 ft | 214 kts | 318° |
| 2026-05-03 22:12 | 26.33669 | -80.34055 | 17027 ft | 226 kts | 334° |
| 2026-05-03 22:12 | 26.35185 | -80.34513 | 17424 ft | 229 kts | 335° |
| 2026-05-03 22:12 | 26.36738 | -80.34982 | 17814 ft | 231 kts | 334° |
| 2026-05-03 22:13 | 26.38297 | -80.35464 | 18207 ft | 233 kts | 334° |
| 2026-05-03 22:13 | 26.39866 | -80.35952 | 18560 ft | 234 kts | 334° |
| 2026-05-03 22:13 | 26.41423 | -80.36435 | 18894 ft | 235 kts | 334° |
| 2026-05-03 22:13 | 26.43006 | -80.36925 | 19239 ft | 236 kts | 333° |
| 2026-05-03 22:14 | 26.44597 | -80.37418 | 19585 ft | 237 kts | 333° |
| 2026-05-03 22:14 | 26.46189 | -80.37911 | 19934 ft | 237 kts | 333° |
| 2026-05-03 22:14 | 26.47780 | -80.38397 | 20284 ft | 238 kts | 335° |
| 2026-05-03 22:14 | 26.49436 | -80.38585 | 20635 ft | 245 kts | 345° |
| 2026-05-03 22:15 | 26.51141 | -80.38698 | 21000 ft | 245 kts | 345° |
| 2026-05-03 22:15 | 26.52849 | -80.38821 | 21364 ft | 246 kts | 344° |
| 2026-05-03 22:15 | 26.54558 | -80.38945 | 21751 ft | 246 kts | 343° |
| 2026-05-03 22:15 | 26.56271 | -80.39067 | 22118 ft | 247 kts | 343° |
| 2026-05-03 22:16 | 26.57992 | -80.39189 | 22503 ft | 247 kts | 343° |
| 2026-05-03 22:16 | 26.59706 | -80.39311 | 22885 ft | 247 kts | 342° |
| 2026-05-03 22:16 | 26.61421 | -80.39433 | 23271 ft | 246 kts | 342° |
| 2026-05-03 22:16 | 26.63131 | -80.39555 | 23657 ft | 246 kts | 342° |
| 2026-05-03 22:17 | 26.64816 | -80.39675 | 23973 ft | 246 kts | 342° |
| 2026-05-03 22:17 | 26.66534 | -80.39800 | 24304 ft | 248 kts | 342° |
| 2026-05-03 22:17 | 26.68268 | -80.39925 | 24643 ft | 250 kts | 342° |
| 2026-05-03 22:17 | 26.70011 | -80.40048 | 24980 ft | 252 kts | 342° |
| 2026-05-03 22:18 | 26.71818 | -80.40187 | 25021 ft | 266 kts | 342° |
| 2026-05-03 22:18 | 26.73602 | -80.40611 | 25036 ft | 259 kts | 324° |
| 2026-05-03 22:18 | 26.75247 | -80.41446 | 25032 ft | 263 kts | 321° |
| 2026-05-03 22:18 | 26.76928 | -80.42325 | 25031 ft | 270 kts | 322° |
| 2026-05-03 22:19 | 26.78327 | -80.43050 | 25034 ft | 274 kts | 322° |
| 2026-05-03 22:19 | 26.80073 | -80.43954 | 25030 ft | 278 kts | 322° |
| 2026-05-03 22:19 | 26.81834 | -80.44870 | 25031 ft | 280 kts | 322° |
| 2026-05-03 22:19 | 26.83606 | -80.45793 | 25030 ft | 282 kts | 322° |
| 2026-05-03 22:20 | 26.85392 | -80.46724 | 25051 ft | 283 kts | 322° |
| 2026-05-03 22:20 | 26.87184 | -80.47658 | 25031 ft | 284 kts | 322° |
| 2026-05-03 22:20 | 26.88980 | -80.48594 | 25030 ft | 285 kts | 322° |
| 2026-05-03 22:20 | 26.90780 | -80.49532 | 25031 ft | 285 kts | 322° |
| 2026-05-03 22:21 | 26.92579 | -80.50471 | 25035 ft | 285 kts | 322° |
| 2026-05-03 22:21 | 26.93231 | -80.50470 | 24535 ft | 63 kts | 322° |
| 2026-05-03 22:21 | 26.93635 | -80.50214 | 19213 ft | 139 kts | 327° |